Terminal Aerodrome Forecast
Issued by NWS

Home | Current Version | Previous Version | Text Only | Print | Product List | Glossary On
Versions: 1 2 3 4 5 6 7 8 9 10 11 12 13 14
000
FTUS43 KMPX 051120
TAFRNH
TAF
KRNH 051120Z 0512/0612 08007KT P6SM SKC
     FM051600 12011G18KT P6SM SCT050 BKN150
     FM060100 12005KT P6SM OVC040
     FM060700 12008KT P6SM VCSH OVC015=

USA.gov is the U.S. government's official web portal to all federal, state and local government web resources and services.